Eagle, WI (53119)

2:56 AM CDT on August 28, 2016 (GMT -0500)
eagle wi. | | Change Station
Active Advisory: Dense Fog Advisory Active Notice: Local Storm Report

Elev 928 ft 42.88 °N, 88.46 °W | Updated 34 seconds ago

Fog
Fog
65.0 °F
Feels Like 65.0 °F
N
1.0
Wind Variable Wind from WNW

Today
High -- | Low -- °F
--% Chance of Precip.
Yesterday
High -- | Low -- °F
Precip. -- in
Pressure 30.14 in
Visibility 0.5 miles
Clouds Mostly Cloudy 200 ft
Dew Point 64 °F
Humidity 98%
Rainfall 0.00 in
Snow Depth Not available.
6:14 AM 7:34 PM
Waning Crescent, 17% visible
METAR KUES 280735Z AUTO 00000KT 1/2SM FG BKN002 17/17 A3014 RMK AO2
Pressure 30.14 in
Visibility 0.5 miles
Clouds Mostly Cloudy 200 ft
Dew Point 64 °F
Humidity 98%
Rainfall 0.00 in
Snow Depth Not available.
6:14 AM 7:34 PM
Waning Crescent, 17% visible
METAR KUES 280735Z AUTO 00000KT 1/2SM FG BKN002 17/17 A3014 RMK AO2

10-Day Weather Forecast

Almanac

Astronomy

Aug. 28, 2016 Rise Set
Actual Time
Civil Twilight
Nautical Twilight
Astronomical Twilight
Moon
Length of Visible Light
Length of Day
Tomorrow will be .
, % of the Moon is Illuminated

Today's Extremes

State Highs State Lows

Community

WunderPhotos

Upload Photos

1,935,533 photos uploaded!

WunderBlog® & News

Nearby

Air Quality

  Air Quality AQ Index Pollutant
Not available.

Snow Depth

Station Depth Elevation

Earthquake Activity

City Distance Mag. Time & Date
Minimum magnitude displayed is 2.5.

Coastal Water Temperatures

Place Temperature

Stations

Nearby Weather Stations

Station Location Temp. Windchill Dew Point Humidity Wind Precip. Elev Updated Type
                   

Watches & Warnings

Dense Fog Advisory
Issued: 12:36 AM CDT Aug. 28, 2016 – National Weather Service

... Dense fog advisory in effect until 10 am CDT this morning...

The National Weather Service in Milwaukee/Sullivan has issued a
dense fog advisory... which is in effect until 10 am CDT this
morning.

* Timing... tonight into Sunday morning.

* Visibility... less than a quarter mile.

* Impacts... it may be difficult to see the Road if you are out
driving


Precautionary/preparedness actions...

A dense fog advisory means visibilities will frequently be
reduced to less than one quarter mile. If driving... slow down...
use your headlights... and leave plenty of distance ahead of you.



Hentz